sensor_id;sensor_type;location;lat;lon;timestamp;pressure;altitude;pressure_sealevel;temperature;humidity
9235;BME280;4652;42.716;23.218;2023-03-13T00:06:41;95042.75;;;-0.20;100.00
9235;BME280;4652;42.716;23.218;2023-03-13T00:13:25;95060.66;;;-0.22;100.00
9235;BME280;4652;42.716;23.218;2023-03-13T00:20:08;95054.47;;;-0.34;100.00
9235;BME280;4652;42.716;23.218;2023-03-13T00:26:51;95058.03;;;-0.46;100.00
9235;BME280;4652;42.716;23.218;2023-03-13T00:33:34;95073.72;;;-0.51;100.00
9235;BME280;4652;42.716;23.218;2023-03-13T00:40:17;95075.50;;;-0.70;100.00
9235;BME280;4652;42.716;23.218;2023-03-13T00:46:59;95039.75;;;-0.79;100.00
9235;BME280;4652;42.716;23.218;2023-03-13T00:53:43;95068.22;;;-0.75;100.00
9235;BME280;4652;42.716;23.218;2023-03-13T01:00:25;95068.44;;;-0.83;100.00
9235;BME280;4652;42.716;23.218;2023-03-13T01:07:07;95062.38;;;-0.90;100.00
9235;BME280;4652;42.716;23.218;2023-03-13T01:13:53;95031.03;;;-1.11;100.00
9235;BME280;4652;42.716;23.218;2023-03-13T01:20:35;95058.53;;;-0.94;100.00
9235;BME280;4652;42.716;23.218;2023-03-13T01:27:20;95068.75;;;-0.97;100.00
9235;BME280;4652;42.716;23.218;2023-03-13T01:34:05;95072.88;;;-1.14;100.00
9235;BME280;4652;42.716;23.218;2023-03-13T01:40:48;95075.06;;;-1.05;100.00
9235;BME280;4652;42.716;23.218;2023-03-13T01:47:30;95081.03;;;-1.16;100.00
9235;BME280;4652;42.716;23.218;2023-03-13T01:54:15;95072.91;;;-1.21;100.00
9235;BME280;4652;42.716;23.218;2023-03-13T02:18:20;95075.38;;;-1.26;100.00
9235;BME280;4652;42.716;23.218;2023-03-13T02:25:08;95100.22;;;-1.40;100.00
9235;BME280;4652;42.716;23.218;2023-03-13T02:31:54;95119.97;;;-1.62;100.00
9235;BME280;4652;42.716;23.218;2023-03-13T02:38:40;95130.38;;;-1.81;100.00
9235;BME280;4652;42.716;23.218;2023-03-13T02:45:23;95140.94;;;-1.81;100.00
9235;BME280;4652;42.716;23.218;2023-03-13T02:52:12;95142.34;;;-1.98;100.00
9235;BME280;4652;42.716;23.218;2023-03-13T02:58:55;95157.97;;;-1.90;100.00
9235;BME280;4652;42.716;23.218;2023-03-13T03:05:37;95147.84;;;-1.99;100.00
9235;BME280;4652;42.716;23.218;2023-03-13T03:12:20;95172.38;;;-1.99;100.00
9235;BME280;4652;42.716;23.218;2023-03-13T03:19:02;95182.75;;;-2.04;100.00
9235;BME280;4652;42.716;23.218;2023-03-13T03:25:45;95191.69;;;-2.05;100.00
9235;BME280;4652;42.716;23.218;2023-03-13T03:32:29;95188.41;;;-2.20;100.00
9235;BME280;4652;42.716;23.218;2023-03-13T03:39:11;95187.78;;;-2.42;100.00
9235;BME280;4652;42.716;23.218;2023-03-13T03:45:53;95231.00;;;-2.36;100.00
9235;BME280;4652;42.716;23.218;2023-03-13T03:52:36;95216.69;;;-2.68;100.00
9235;BME280;4652;42.716;23.218;2023-03-13T03:59:19;95229.47;;;-2.71;100.00
9235;BME280;4652;42.716;23.218;2023-03-13T04:06:01;95245.09;;;-2.63;100.00
9235;BME280;4652;42.716;23.218;2023-03-13T04:12:44;95256.81;;;-2.72;100.00
9235;BME280;4652;42.716;23.218;2023-03-13T04:19:26;95260.78;;;-2.96;100.00
9235;BME280;4652;42.716;23.218;2023-03-13T04:26:09;95263.97;;;-3.07;100.00
9235;BME280;4652;42.716;23.218;2023-03-13T04:32:52;95266.88;;;-2.95;100.00
9235;BME280;4652;42.716;23.218;2023-03-13T04:39:34;95294.34;;;-3.05;100.00
9235;BME280;4652;42.716;23.218;2023-03-13T04:46:17;95290.28;;;-3.07;100.00
9235;BME280;4652;42.716;23.218;2023-03-13T04:53:00;95312.25;;;-2.93;100.00
9235;BME280;4652;42.716;23.218;2023-03-13T04:59:42;95323.13;;;-3.03;100.00
9235;BME280;4652;42.716;23.218;2023-03-13T05:06:24;95309.78;;;-3.02;100.00
9235;BME280;4652;42.716;23.218;2023-03-13T05:13:08;95323.41;;;-2.57;100.00
9235;BME280;4652;42.716;23.218;2023-03-13T05:19:50;95321.81;;;-2.45;100.00
9235;BME280;4652;42.716;23.218;2023-03-13T05:26:32;95333.31;;;-2.05;100.00
9235;BME280;4652;42.716;23.218;2023-03-13T05:33:15;95319.97;;;-1.77;100.00
9235;BME280;4652;42.716;23.218;2023-03-13T05:39:58;95314.53;;;-1.37;100.00
9235;BME280;4652;42.716;23.218;2023-03-13T05:46:40;95329.06;;;-0.69;100.00
9235;BME280;4652;42.716;23.218;2023-03-13T05:53:24;95316.50;;;1.03;100.00
9235;BME280;4652;42.716;23.218;2023-03-13T06:06:49;95319.09;;;15.99;nan
9235;BME280;4652;42.716;23.218;2023-03-13T06:13:32;95310.63;;;17.96;nan
9235;BME280;4652;42.716;23.218;2023-03-13T06:20:14;95309.44;;;18.77;nan
9235;BME280;4652;42.716;23.218;2023-03-13T06:33:40;95261.41;;;22.26;nan
9235;BME280;4652;42.716;23.218;2023-03-13T06:40:22;95310.59;;;21.91;nan
9235;BME280;4652;42.716;23.218;2023-03-13T06:47:04;95327.94;;;22.50;nan
9235;BME280;4652;42.716;23.218;2023-03-13T06:53:48;95279.03;;;20.93;nan
9235;BME280;4652;42.716;23.218;2023-03-13T07:00:31;95287.00;;;19.84;nan
9235;BME280;4652;42.716;23.218;2023-03-13T07:07:14;95295.06;;;20.01;nan
9235;BME280;4652;42.716;23.218;2023-03-13T07:13:57;95292.50;;;18.93;nan
9235;BME280;4652;42.716;23.218;2023-03-13T07:20:41;95286.94;;;19.30;nan
9235;BME280;4652;42.716;23.218;2023-03-13T07:27:23;95285.16;;;17.92;nan
9235;BME280;4652;42.716;23.218;2023-03-13T07:34:07;95293.63;;;18.07;nan
9235;BME280;4652;42.716;23.218;2023-03-13T07:40:49;95286.41;;;19.99;nan
9235;BME280;4652;42.716;23.218;2023-03-13T07:47:33;95283.22;;;19.76;nan
9235;BME280;4652;42.716;23.218;2023-03-13T07:54:17;95287.00;;;20.17;nan
9235;BME280;4652;42.716;23.218;2023-03-13T08:51:46;95286.78;;;9.00;50.25
9235;BME280;4652;42.716;23.218;2023-03-13T08:58:28;95304.97;;;8.52;50.70
9235;BME280;4652;42.716;23.218;2023-03-13T09:05:10;95300.22;;;9.00;50.40
9235;BME280;4652;42.716;23.218;2023-03-13T09:11:53;95283.56;;;9.28;52.43
9235;BME280;4652;42.716;23.218;2023-03-13T09:18:36;95289.38;;;10.16;50.53
9235;BME280;4652;42.716;23.218;2023-03-13T09:25:19;95254.97;;;9.87;48.80
9235;BME280;4652;42.716;23.218;2023-03-13T09:32:02;95289.06;;;10.27;48.21
9235;BME280;4652;42.716;23.218;2023-03-13T09:38:45;95240.03;;;9.21;48.93
9235;BME280;4652;42.716;23.218;2023-03-13T09:45:30;95265.00;;;9.36;49.70
9235;BME280;4652;42.716;23.218;2023-03-13T09:52:17;95248.66;;;9.03;50.95
9235;BME280;4652;42.716;23.218;2023-03-13T09:59:04;95273.34;;;9.15;51.82
9235;BME280;4652;42.716;23.218;2023-03-13T10:05:54;95248.56;;;9.73;51.69
9235;BME280;4652;42.716;23.218;2023-03-13T10:12:43;95235.69;;;9.65;49.04
9235;BME280;4652;42.716;23.218;2023-03-13T10:19:31;95239.69;;;10.42;51.30
